sensor_id;sensor_type;location;lat;lon;timestamp;temperature;humidity
4052;DHT22;2040;50.924;11.604;2023-05-16T00:01:07;10.70;99.90
4052;DHT22;2040;50.924;11.604;2023-05-16T00:03:33;10.80;99.90
4052;DHT22;2040;50.924;11.604;2023-05-16T00:05:59;10.80;99.90
4052;DHT22;2040;50.924;11.604;2023-05-16T00:08:27;10.90;99.90
4052;DHT22;2040;50.924;11.604;2023-05-16T00:10:52;10.90;99.90
4052;DHT22;2040;50.924;11.604;2023-05-16T00:13:18;10.90;99.90
4052;DHT22;2040;50.924;11.604;2023-05-16T00:15:49;11.10;99.90
4052;DHT22;2040;50.924;11.604;2023-05-16T00:18:16;11.20;99.90
4052;DHT22;2040;50.924;11.604;2023-05-16T00:20:41;11.20;99.90
4052;DHT22;2040;50.924;11.604;2023-05-16T00:23:07;11.00;99.90
4052;DHT22;2040;50.924;11.604;2023-05-16T00:25:33;10.90;99.90
4052;DHT22;2040;50.924;11.604;2023-05-16T00:27:58;10.90;99.90
4052;DHT22;2040;50.924;11.604;2023-05-16T00:30:24;11.00;99.90
4052;DHT22;2040;50.924;11.604;2023-05-16T00:32:49;11.10;99.90
4052;DHT22;2040;50.924;11.604;2023-05-16T00:35:15;11.10;99.90
4052;DHT22;2040;50.924;11.604;2023-05-16T00:37:40;11.10;99.90
4052;DHT22;2040;50.924;11.604;2023-05-16T00:40:07;11.40;99.90
4052;DHT22;2040;50.924;11.604;2023-05-16T00:42:32;11.50;99.90
4052;DHT22;2040;50.924;11.604;2023-05-16T00:44:58;11.50;99.90
4052;DHT22;2040;50.924;11.604;2023-05-16T00:47:24;11.60;99.90
4052;DHT22;2040;50.924;11.604;2023-05-16T00:49:49;11.70;99.90
4052;DHT22;2040;50.924;11.604;2023-05-16T00:52:15;11.60;99.90
4052;DHT22;2040;50.924;11.604;2023-05-16T00:54:41;11.70;99.90
4052;DHT22;2040;50.924;11.604;2023-05-16T00:57:06;11.80;99.90
4052;DHT22;2040;50.924;11.604;2023-05-16T00:59:32;11.70;99.90
4052;DHT22;2040;50.924;11.604;2023-05-16T01:01:58;11.60;99.90
4052;DHT22;2040;50.924;11.604;2023-05-16T01:04:24;11.50;99.90
4052;DHT22;2040;50.924;11.604;2023-05-16T01:06:51;11.70;99.90
4052;DHT22;2040;50.924;11.604;2023-05-16T01:09:16;11.60;99.90
4052;DHT22;2040;50.924;11.604;2023-05-16T01:12:06;11.50;99.90
4052;DHT22;2040;50.924;11.604;2023-05-16T01:27:57;11.70;99.90
4052;DHT22;2040;50.924;11.604;2023-05-16T01:30:23;11.80;99.90
4052;DHT22;2040;50.924;11.604;2023-05-16T01:32:49;11.90;99.90
4052;DHT22;2040;50.924;11.604;2023-05-16T01:35:16;11.90;99.90
4052;DHT22;2040;50.924;11.604;2023-05-16T01:37:48;11.90;99.90
4052;DHT22;2040;50.924;11.604;2023-05-16T01:40:33;11.90;99.90
4052;DHT22;2040;50.924;11.604;2023-05-16T01:43:03;11.70;99.90
4052;DHT22;2040;50.924;11.604;2023-05-16T01:45:31;11.70;99.90
4052;DHT22;2040;50.924;11.604;2023-05-16T01:48:12;11.70;99.90
4052;DHT22;2040;50.924;11.604;2023-05-16T01:50:43;11.60;99.90
4052;DHT22;2040;50.924;11.604;2023-05-16T01:53:14;11.60;99.90
4052;DHT22;2040;50.924;11.604;2023-05-16T01:55:46;11.40;99.90
4052;DHT22;2040;50.924;11.604;2023-05-16T01:58:14;11.30;99.90
4052;DHT22;2040;50.924;11.604;2023-05-16T02:00:40;11.10;99.90
4052;DHT22;2040;50.924;11.604;2023-05-16T02:03:06;10.80;99.90
4052;DHT22;2040;50.924;11.604;2023-05-16T02:05:32;10.60;99.90
4052;DHT22;2040;50.924;11.604;2023-05-16T02:07:58;10.60;99.90
4052;DHT22;2040;50.924;11.604;2023-05-16T02:10:24;10.50;99.90
4052;DHT22;2040;50.924;11.604;2023-05-16T02:12:51;10.40;99.90
4052;DHT22;2040;50.924;11.604;2023-05-16T02:15:16;10.60;99.90
4052;DHT22;2040;50.924;11.604;2023-05-16T02:17:42;10.60;99.90
4052;DHT22;2040;50.924;11.604;2023-05-16T02:20:08;10.60;99.90
4052;DHT22;2040;50.924;11.604;2023-05-16T02:22:34;10.70;99.90
4052;DHT22;2040;50.924;11.604;2023-05-16T02:25:02;10.90;99.90
4052;DHT22;2040;50.924;11.604;2023-05-16T02:27:31;10.90;99.90
4052;DHT22;2040;50.924;11.604;2023-05-16T02:29:57;10.80;99.90
4052;DHT22;2040;50.924;11.604;2023-05-16T02:32:23;10.80;99.90
4052;DHT22;2040;50.924;11.604;2023-05-16T02:34:48;10.80;99.90
4052;DHT22;2040;50.924;11.604;2023-05-16T02:37:14;10.80;99.90
4052;DHT22;2040;50.924;11.604;2023-05-16T02:39:40;10.70;99.90
4052;DHT22;2040;50.924;11.604;2023-05-16T02:42:06;10.50;99.90
4052;DHT22;2040;50.924;11.604;2023-05-16T02:44:32;10.30;99.90
4052;DHT22;2040;50.924;11.604;2023-05-16T02:46:58;10.40;99.90
4052;DHT22;2040;50.924;11.604;2023-05-16T02:49:23;10.30;99.90
4052;DHT22;2040;50.924;11.604;2023-05-16T02:51:49;10.20;99.90
4052;DHT22;2040;50.924;11.604;2023-05-16T02:54:15;10.20;99.90
4052;DHT22;2040;50.924;11.604;2023-05-16T02:56:40;10.20;99.90
4052;DHT22;2040;50.924;11.604;2023-05-16T02:59:06;10.30;99.90
4052;DHT22;2040;50.924;11.604;2023-05-16T03:01:31;10.20;99.90
4052;DHT22;2040;50.924;11.604;2023-05-16T03:03:57;10.20;99.90
4052;DHT22;2040;50.924;11.604;2023-05-16T03:06:23;10.30;99.90
4052;DHT22;2040;50.924;11.604;2023-05-16T03:08:48;10.40;99.90
4052;DHT22;2040;50.924;11.604;2023-05-16T03:11:15;10.50;99.90
4052;DHT22;2040;50.924;11.604;2023-05-16T03:13:43;10.50;99.90
4052;DHT22;2040;50.924;11.604;2023-05-16T03:16:08;10.50;99.90
4052;DHT22;2040;50.924;11.604;2023-05-16T03:18:34;10.40;99.90
4052;DHT22;2040;50.924;11.604;2023-05-16T03:21:00;10.30;99.90
4052;DHT22;2040;50.924;11.604;2023-05-16T03:23:26;10.30;99.90
4052;DHT22;2040;50.924;11.604;2023-05-16T03:25:51;10.10;99.90
4052;DHT22;2040;50.924;11.604;2023-05-16T03:28:17;9.80;99.90
4052;DHT22;2040;50.924;11.604;2023-05-16T03:30:43;9.70;99.90
4052;DHT22;2040;50.924;11.604;2023-05-16T03:33:08;9.50;99.90
4052;DHT22;2040;50.924;11.604;2023-05-16T03:35:34;9.40;99.90
4052;DHT22;2040;50.924;11.604;2023-05-16T03:38:01;9.40;99.90
4052;DHT22;2040;50.924;11.604;2023-05-16T03:40:26;9.50;99.90
4052;DHT22;2040;50.924;11.604;2023-05-16T03:42:52;9.60;99.90
4052;DHT22;2040;50.924;11.604;2023-05-16T03:45:18;9.60;99.90
4052;DHT22;2040;50.924;11.604;2023-05-16T03:47:43;9.80;99.90
4052;DHT22;2040;50.924;11.604;2023-05-16T03:50:09;10.00;99.90
4052;DHT22;2040;50.924;11.604;2023-05-16T03:52:35;10.10;99.90
4052;DHT22;2040;50.924;11.604;2023-05-16T03:55:01;10.20;99.90
4052;DHT22;2040;50.924;11.604;2023-05-16T03:57:30;10.10;99.90
4052;DHT22;2040;50.924;11.604;2023-05-16T03:59:56;10.10;99.90
4052;DHT22;2040;50.924;11.604;2023-05-16T04:02:22;10.10;99.90
4052;DHT22;2040;50.924;11.604;2023-05-16T04:04:47;10.20;99.90
4052;DHT22;2040;50.924;11.604;2023-05-16T04:07:13;10.20;99.90
4052;DHT22;2040;50.924;11.604;2023-05-16T04:09:38;10.30;99.90
4052;DHT22;2040;50.924;11.604;2023-05-16T04:12:05;10.50;99.90
4052;DHT22;2040;50.924;11.604;2023-05-16T04:14:31;10.50;99.90
4052;DHT22;2040;50.924;11.604;2023-05-16T04:16:56;10.40;99.90
4052;DHT22;2040;50.924;11.604;2023-05-16T04:19:22;10.30;99.90
4052;DHT22;2040;50.924;11.604;2023-05-16T04:21:47;10.30;99.90
4052;DHT22;2040;50.924;11.604;2023-05-16T04:24:13;10.20;99.90
4052;DHT22;2040;50.924;11.604;2023-05-16T04:26:38;10.10;99.90
4052;DHT22;2040;50.924;11.604;2023-05-16T04:29:04;10.10;99.90
4052;DHT22;2040;50.924;11.604;2023-05-16T04:31:30;10.00;99.90
4052;DHT22;2040;50.924;11.604;2023-05-16T04:33:56;10.10;99.90
4052;DHT22;2040;50.924;11.604;2023-05-16T04:36:22;10.10;99.90
4052;DHT22;2040;50.924;11.604;2023-05-16T04:38:48;10.20;99.90
4052;DHT22;2040;50.924;11.604;2023-05-16T04:41:13;10.20;99.90
4052;DHT22;2040;50.924;11.604;2023-05-16T04:43:39;10.20;99.90
4052;DHT22;2040;50.924;11.604;2023-05-16T04:46:05;10.10;99.90
4052;DHT22;2040;50.924;11.604;2023-05-16T04:48:32;10.10;99.90
4052;DHT22;2040;50.924;11.604;2023-05-16T04:50:58;10.10;99.90
4052;DHT22;2040;50.924;11.604;2023-05-16T04:53:24;9.90;99.90
4052;DHT22;2040;50.924;11.604;2023-05-16T04:55:49;9.90;99.90
4052;DHT22;2040;50.924;11.604;2023-05-16T04:58:15;9.80;99.90
4052;DHT22;2040;50.924;11.604;2023-05-16T05:00:41;9.80;99.90
4052;DHT22;2040;50.924;11.604;2023-05-16T05:03:06;9.90;99.90
4052;DHT22;2040;50.924;11.604;2023-05-16T05:05:32;9.90;99.90
4052;DHT22;2040;50.924;11.604;2023-05-16T05:07:58;9.90;99.90
4052;DHT22;2040;50.924;11.604;2023-05-16T05:10:24;10.00;99.90
4052;DHT22;2040;50.924;11.604;2023-05-16T05:12:52;9.90;99.90
4052;DHT22;2040;50.924;11.604;2023-05-16T05:15:17;9.90;99.90
4052;DHT22;2040;50.924;11.604;2023-05-16T05:17:43;9.90;99.90
4052;DHT22;2040;50.924;11.604;2023-05-16T05:20:10;9.90;99.90
4052;DHT22;2040;50.924;11.604;2023-05-16T05:22:36;10.00;99.90
4052;DHT22;2040;50.924;11.604;2023-05-16T05:25:01;10.00;99.90
4052;DHT22;2040;50.924;11.604;2023-05-16T05:27:27;10.00;99.90
4052;DHT22;2040;50.924;11.604;2023-05-16T05:29:53;10.00;99.90
4052;DHT22;2040;50.924;11.604;2023-05-16T05:32:18;10.00;99.90
4052;DHT22;2040;50.924;11.604;2023-05-16T05:34:44;10.10;99.90
4052;DHT22;2040;50.924;11.604;2023-05-16T05:37:09;10.00;99.90
4052;DHT22;2040;50.924;11.604;2023-05-16T05:39:35;10.00;99.90
4052;DHT22;2040;50.924;11.604;2023-05-16T05:42:01;9.90;99.90
4052;DHT22;2040;50.924;11.604;2023-05-16T05:44:29;10.00;99.90
4052;DHT22;2040;50.924;11.604;2023-05-16T05:46:55;9.90;99.90
4052;DHT22;2040;50.924;11.604;2023-05-16T05:49:25;9.90;99.90
4052;DHT22;2040;50.924;11.604;2023-05-16T05:51:51;9.90;99.90
4052;DHT22;2040;50.924;11.604;2023-05-16T05:54:17;9.90;99.90
4052;DHT22;2040;50.924;11.604;2023-05-16T05:56:43;9.90;99.90
4052;DHT22;2040;50.924;11.604;2023-05-16T05:59:09;10.00;99.90
4052;DHT22;2040;50.924;11.604;2023-05-16T06:01:34;9.90;99.90
4052;DHT22;2040;50.924;11.604;2023-05-16T06:04:00;10.10;99.90
4052;DHT22;2040;50.924;11.604;2023-05-16T06:06:26;10.00;99.90
4052;DHT22;2040;50.924;11.604;2023-05-16T06:08:51;10.10;99.90
4052;DHT22;2040;50.924;11.604;2023-05-16T06:11:17;10.10;99.90
4052;DHT22;2040;50.924;11.604;2023-05-16T06:13:43;10.10;99.90
4052;DHT22;2040;50.924;11.604;2023-05-16T06:16:08;10.10;99.90
4052;DHT22;2040;50.924;11.604;2023-05-16T06:18:34;10.10;99.90
4052;DHT22;2040;50.924;11.604;2023-05-16T06:20:59;10.10;99.90
4052;DHT22;2040;50.924;11.604;2023-05-16T06:23:25;10.20;99.90
4052;DHT22;2040;50.924;11.604;2023-05-16T06:25:51;10.20;99.90
4052;DHT22;2040;50.924;11.604;2023-05-16T06:28:17;10.30;99.90
4052;DHT22;2040;50.924;11.604;2023-05-16T06:30:42;10.20;99.90
4052;DHT22;2040;50.924;11.604;2023-05-16T06:33:08;10.20;99.90
4052;DHT22;2040;50.924;11.604;2023-05-16T06:35:33;10.20;99.90
4052;DHT22;2040;50.924;11.604;2023-05-16T06:37:59;10.10;99.90
4052;DHT22;2040;50.924;11.604;2023-05-16T06:40:25;10.10;99.90
4052;DHT22;2040;50.924;11.604;2023-05-16T06:42:50;10.10;99.90
4052;DHT22;2040;50.924;11.604;2023-05-16T06:45:16;10.10;99.90
4052;DHT22;2040;50.924;11.604;2023-05-16T06:47:41;10.20;99.90
4052;DHT22;2040;50.924;11.604;2023-05-16T06:50:07;10.00;99.90
4052;DHT22;2040;50.924;11.604;2023-05-16T06:52:33;10.00;99.90
4052;DHT22;2040;50.924;11.604;2023-05-16T06:54:58;10.00;99.90
4052;DHT22;2040;50.924;11.604;2023-05-16T06:57:24;10.00;99.90
4052;DHT22;2040;50.924;11.604;2023-05-16T06:59:50;10.10;99.90
4052;DHT22;2040;50.924;11.604;2023-05-16T07:02:16;10.10;99.90
4052;DHT22;2040;50.924;11.604;2023-05-16T07:04:41;10.10;99.90
4052;DHT22;2040;50.924;11.604;2023-05-16T07:07:07;10.10;99.90
4052;DHT22;2040;50.924;11.604;2023-05-16T07:09:33;10.10;99.90
4052;DHT22;2040;50.924;11.604;2023-05-16T07:11:59;10.10;99.90
4052;DHT22;2040;50.924;11.604;2023-05-16T07:14:25;10.10;99.90
4052;DHT22;2040;50.924;11.604;2023-05-16T07:16:50;10.20;99.90
4052;DHT22;2040;50.924;11.604;2023-05-16T07:19:16;10.20;99.90
4052;DHT22;2040;50.924;11.604;2023-05-16T07:21:41;10.20;99.90
4052;DHT22;2040;50.924;11.604;2023-05-16T07:24:07;10.20;99.90
4052;DHT22;2040;50.924;11.604;2023-05-16T07:26:33;10.20;99.90
4052;DHT22;2040;50.924;11.604;2023-05-16T07:28:58;10.20;99.90
4052;DHT22;2040;50.924;11.604;2023-05-16T07:31:24;10.30;99.90
4052;DHT22;2040;50.924;11.604;2023-05-16T07:33:49;10.30;99.90
4052;DHT22;2040;50.924;11.604;2023-05-16T07:36:15;10.30;99.90
4052;DHT22;2040;50.924;11.604;2023-05-16T07:38:41;10.30;99.90
4052;DHT22;2040;50.924;11.604;2023-05-16T07:41:07;10.30;99.90
4052;DHT22;2040;50.924;11.604;2023-05-16T07:43:32;10.40;99.90
4052;DHT22;2040;50.924;11.604;2023-05-16T07:46:00;10.30;99.90
4052;DHT22;2040;50.924;11.604;2023-05-16T07:48:26;10.40;99.90
4052;DHT22;2040;50.924;11.604;2023-05-16T07:50:52;10.30;99.90
4052;DHT22;2040;50.924;11.604;2023-05-16T07:53:17;10.40;99.90
4052;DHT22;2040;50.924;11.604;2023-05-16T07:55:43;10.40;99.90
4052;DHT22;2040;50.924;11.604;2023-05-16T07:58:09;10.50;99.90
4052;DHT22;2040;50.924;11.604;2023-05-16T08:00:34;10.50;99.90
4052;DHT22;2040;50.924;11.604;2023-05-16T08:03:00;10.50;99.90
4052;DHT22;2040;50.924;11.604;2023-05-16T08:05:25;10.50;99.90
4052;DHT22;2040;50.924;11.604;2023-05-16T08:07:51;10.60;99.90
4052;DHT22;2040;50.924;11.604;2023-05-16T08:10:17;10.60;99.90
4052;DHT22;2040;50.924;11.604;2023-05-16T08:12:42;10.70;99.90
4052;DHT22;2040;50.924;11.604;2023-05-16T08:15:08;10.70;99.90
4052;DHT22;2040;50.924;11.604;2023-05-16T08:17:34;10.80;99.90
4052;DHT22;2040;50.924;11.604;2023-05-16T08:19:59;10.90;99.90
4052;DHT22;2040;50.924;11.604;2023-05-16T08:22:26;10.80;99.90
4052;DHT22;2040;50.924;11.604;2023-05-16T08:24:52;10.80;99.90
4052;DHT22;2040;50.924;11.604;2023-05-16T08:27:25;10.90;99.90
4052;DHT22;2040;50.924;11.604;2023-05-16T08:29:51;11.00;99.90
4052;DHT22;2040;50.924;11.604;2023-05-16T08:32:16;11.00;99.90
4052;DHT22;2040;50.924;11.604;2023-05-16T08:34:42;11.00;99.90
4052;DHT22;2040;50.924;11.604;2023-05-16T08:37:07;11.20;99.90
4052;DHT22;2040;50.924;11.604;2023-05-16T08:39:33;11.00;99.90
4052;DHT22;2040;50.924;11.604;2023-05-16T08:41:59;10.90;99.90
4052;DHT22;2040;50.924;11.604;2023-05-16T08:44:25;10.80;99.90
4052;DHT22;2040;50.924;11.604;2023-05-16T08:46:52;10.80;99.90
4052;DHT22;2040;50.924;11.604;2023-05-16T08:49:18;10.80;99.90
4052;DHT22;2040;50.924;11.604;2023-05-16T08:51:48;10.80;99.90
4052;DHT22;2040;50.924;11.604;2023-05-16T08:54:15;10.70;99.90
4052;DHT22;2040;50.924;11.604;2023-05-16T08:56:42;10.70;99.90
4052;DHT22;2040;50.924;11.604;2023-05-16T08:59:08;10.70;99.90
4052;DHT22;2040;50.924;11.604;2023-05-16T09:01:34;10.60;99.90
4052;DHT22;2040;50.924;11.604;2023-05-16T09:04:01;10.60;99.90
4052;DHT22;2040;50.924;11.604;2023-05-16T09:06:28;10.60;99.90
4052;DHT22;2040;50.924;11.604;2023-05-16T09:08:53;10.70;99.90
4052;DHT22;2040;50.924;11.604;2023-05-16T09:11:19;10.70;99.90
4052;DHT22;2040;50.924;11.604;2023-05-16T09:13:46;10.80;99.90
4052;DHT22;2040;50.924;11.604;2023-05-16T09:16:13;10.80;99.90
4052;DHT22;2040;50.924;11.604;2023-05-16T09:18:42;10.80;99.90
4052;DHT22;2040;50.924;11.604;2023-05-16T09:21:09;10.80;99.90
4052;DHT22;2040;50.924;11.604;2023-05-16T09:23:36;10.70;99.90
4052;DHT22;2040;50.924;11.604;2023-05-16T09:26:02;10.80;99.90
4052;DHT22;2040;50.924;11.604;2023-05-16T09:28:29;10.90;99.90
4052;DHT22;2040;50.924;11.604;2023-05-16T09:30:56;10.90;99.90
4052;DHT22;2040;50.924;11.604;2023-05-16T09:33:26;11.10;99.90
4052;DHT22;2040;50.924;11.604;2023-05-16T09:35:58;11.20;99.90
4052;DHT22;2040;50.924;11.604;2023-05-16T09:38:24;11.30;99.90
4052;DHT22;2040;50.924;11.604;2023-05-16T09:40:51;11.30;99.90
4052;DHT22;2040;50.924;11.604;2023-05-16T09:43:19;11.40;99.90
4052;DHT22;2040;50.924;11.604;2023-05-16T09:45:47;11.40;99.90
4052;DHT22;2040;50.924;11.604;2023-05-16T09:48:13;11.40;99.90
4052;DHT22;2040;50.924;11.604;2023-05-16T09:50:40;11.40;99.90
4052;DHT22;2040;50.924;11.604;2023-05-16T09:53:12;11.60;99.90
4052;DHT22;2040;50.924;11.604;2023-05-16T09:55:38;11.50;99.90
4052;DHT22;2040;50.924;11.604;2023-05-16T09:58:03;11.60;99.90
4052;DHT22;2040;50.924;11.604;2023-05-16T10:00:30;11.60;99.90
4052;DHT22;2040;50.924;11.604;2023-05-16T10:02:57;11.60;99.90
4052;DHT22;2040;50.924;11.604;2023-05-16T10:05:25;11.50;99.90
4052;DHT22;2040;50.924;11.604;2023-05-16T10:07:54;11.30;99.90
4052;DHT22;2040;50.924;11.604;2023-05-16T10:10:21;11.20;99.90
4052;DHT22;2040;50.924;11.604;2023-05-16T10:12:47;11.10;99.90
4052;DHT22;2040;50.924;11.604;2023-05-16T10:15:15;11.00;99.90
4052;DHT22;2040;50.924;11.604;2023-05-16T10:17:42;11.00;99.90
4052;DHT22;2040;50.924;11.604;2023-05-16T10:20:11;11.00;99.90
4052;DHT22;2040;50.924;11.604;2023-05-16T10:22:42;11.00;99.90
4052;DHT22;2040;50.924;11.604;2023-05-16T10:25:19;11.00;99.90
4052;DHT22;2040;50.924;11.604;2023-05-16T10:27:50;11.10;99.90
4052;DHT22;2040;50.924;11.604;2023-05-16T10:30:17;11.10;99.90
4052;DHT22;2040;50.924;11.604;2023-05-16T10:32:44;11.10;99.90
4052;DHT22;2040;50.924;11.604;2023-05-16T10:35:10;11.00;99.90
4052;DHT22;2040;50.924;11.604;2023-05-16T10:37:36;11.00;99.90
4052;DHT22;2040;50.924;11.604;2023-05-16T10:40:03;11.00;99.90
4052;DHT22;2040;50.924;11.604;2023-05-16T10:42:33;10.90;99.90
4052;DHT22;2040;50.924;11.604;2023-05-16T10:45:18;10.90;99.90
4052;DHT22;2040;50.924;11.604;2023-05-16T10:47:52;11.00;99.90
4052;DHT22;2040;50.924;11.604;2023-05-16T10:50:32;11.00;99.90
4052;DHT22;2040;50.924;11.604;2023-05-16T10:53:28;11.00;99.90
4052;DHT22;2040;50.924;11.604;2023-05-16T11:06:30;11.00;99.90
4052;DHT22;2040;50.924;11.604;2023-05-16T11:11:54;11.10;99.90
4052;DHT22;2040;50.924;11.604;2023-05-16T11:14:25;11.10;99.90
4052;DHT22;2040;50.924;11.604;2023-05-16T11:16:56;11.20;99.90
4052;DHT22;2040;50.924;11.604;2023-05-16T11:19:44;11.30;99.90
4052;DHT22;2040;50.924;11.604;2023-05-16T11:25:05;11.70;99.90
4052;DHT22;2040;50.924;11.604;2023-05-16T11:27:32;11.80;99.90
4052;DHT22;2040;50.924;11.604;2023-05-16T11:32:32;11.70;99.90
4052;DHT22;2040;50.924;11.604;2023-05-16T11:34:58;11.70;99.90
4052;DHT22;2040;50.924;11.604;2023-05-16T11:37:24;11.70;99.90
4052;DHT22;2040;50.924;11.604;2023-05-16T11:39:49;11.60;99.90
4052;DHT22;2040;50.924;11.604;2023-05-16T11:42:15;11.60;99.90
4052;DHT22;2040;50.924;11.604;2023-05-16T11:44:42;11.50;99.90
4052;DHT22;2040;50.924;11.604;2023-05-16T11:47:08;11.40;99.90
4052;DHT22;2040;50.924;11.604;2023-05-16T11:49:34;11.30;99.90
4052;DHT22;2040;50.924;11.604;2023-05-16T11:52:00;11.10;99.90
4052;DHT22;2040;50.924;11.604;2023-05-16T11:54:26;11.00;99.90
4052;DHT22;2040;50.924;11.604;2023-05-16T11:56:51;11.00;99.90
4052;DHT22;2040;50.924;11.604;2023-05-16T11:59:17;11.00;99.90
4052;DHT22;2040;50.924;11.604;2023-05-16T12:01:43;11.00;99.90
4052;DHT22;2040;50.924;11.604;2023-05-16T12:04:14;10.90;99.90
4052;DHT22;2040;50.924;11.604;2023-05-16T12:06:41;10.80;99.90
4052;DHT22;2040;50.924;11.604;2023-05-16T12:09:14;10.80;99.90
4052;DHT22;2040;50.924;11.604;2023-05-16T12:11:42;10.90;99.90
4052;DHT22;2040;50.924;11.604;2023-05-16T12:14:10;10.90;99.90
4052;DHT22;2040;50.924;11.604;2023-05-16T12:16:37;11.00;99.90
4052;DHT22;2040;50.924;11.604;2023-05-16T12:19:06;11.00;99.90
4052;DHT22;2040;50.924;11.604;2023-05-16T12:21:32;11.10;99.90
4052;DHT22;2040;50.924;11.604;2023-05-16T12:23:58;11.30;99.90
4052;DHT22;2040;50.924;11.604;2023-05-16T12:26:29;11.40;99.90
4052;DHT22;2040;50.924;11.604;2023-05-16T12:28:59;11.40;99.90
4052;DHT22;2040;50.924;11.604;2023-05-16T12:31:28;11.50;99.90
4052;DHT22;2040;50.924;11.604;2023-05-16T12:33:55;11.60;99.90
4052;DHT22;2040;50.924;11.604;2023-05-16T12:36:21;11.80;99.90
4052;DHT22;2040;50.924;11.604;2023-05-16T12:38:48;11.80;99.90
4052;DHT22;2040;50.924;11.604;2023-05-16T12:41:18;11.80;99.90
4052;DHT22;2040;50.924;11.604;2023-05-16T12:43:44;11.80;99.90
4052;DHT22;2040;50.924;11.604;2023-05-16T12:46:10;11.80;99.90
4052;DHT22;2040;50.924;11.604;2023-05-16T12:48:39;11.80;99.90
4052;DHT22;2040;50.924;11.604;2023-05-16T12:51:17;11.90;99.90
4052;DHT22;2040;50.924;11.604;2023-05-16T12:53:49;11.80;99.90
4052;DHT22;2040;50.924;11.604;2023-05-16T12:56:15;11.80;99.90
4052;DHT22;2040;50.924;11.604;2023-05-16T12:58:41;11.80;99.90
4052;DHT22;2040;50.924;11.604;2023-05-16T13:01:07;11.90;99.90
4052;DHT22;2040;50.924;11.604;2023-05-16T13:03:34;11.90;99.90
4052;DHT22;2040;50.924;11.604;2023-05-16T13:06:00;12.20;99.90
4052;DHT22;2040;50.924;11.604;2023-05-16T13:08:26;12.20;99.90
4052;DHT22;2040;50.924;11.604;2023-05-16T13:10:53;12.30;99.90
4052;DHT22;2040;50.924;11.604;2023-05-16T13:13:18;12.70;99.90
4052;DHT22;2040;50.924;11.604;2023-05-16T13:15:44;12.90;99.90
4052;DHT22;2040;50.924;11.604;2023-05-16T13:18:10;13.40;99.90
4052;DHT22;2040;50.924;11.604;2023-05-16T13:20:36;13.70;99.90
4052;DHT22;2040;50.924;11.604;2023-05-16T13:23:02;13.90;99.90
4052;DHT22;2040;50.924;11.604;2023-05-16T13:25:29;13.80;99.90
4052;DHT22;2040;50.924;11.604;2023-05-16T13:27:55;13.60;99.90
4052;DHT22;2040;50.924;11.604;2023-05-16T13:30:21;13.50;99.90
4052;DHT22;2040;50.924;11.604;2023-05-16T13:32:46;13.30;99.90
4052;DHT22;2040;50.924;11.604;2023-05-16T13:35:12;13.30;99.90
4052;DHT22;2040;50.924;11.604;2023-05-16T13:37:38;13.10;99.90
4052;DHT22;2040;50.924;11.604;2023-05-16T13:40:04;13.00;99.90
4052;DHT22;2040;50.924;11.604;2023-05-16T13:42:32;13.10;99.90
4052;DHT22;2040;50.924;11.604;2023-05-16T13:44:58;13.20;99.90
4052;DHT22;2040;50.924;11.604;2023-05-16T13:47:24;13.30;99.90
4052;DHT22;2040;50.924;11.604;2023-05-16T13:49:50;13.40;99.90
4052;DHT22;2040;50.924;11.604;2023-05-16T13:52:15;13.40;99.90
4052;DHT22;2040;50.924;11.604;2023-05-16T13:54:41;13.60;99.90
4052;DHT22;2040;50.924;11.604;2023-05-16T13:57:07;13.70;99.90
4052;DHT22;2040;50.924;11.604;2023-05-16T13:59:32;13.90;99.90
4052;DHT22;2040;50.924;11.604;2023-05-16T14:01:58;14.60;99.90
4052;DHT22;2040;50.924;11.604;2023-05-16T14:04:24;15.20;99.90
4052;DHT22;2040;50.924;11.604;2023-05-16T14:06:50;15.20;99.90
4052;DHT22;2040;50.924;11.604;2023-05-16T14:09:16;14.80;99.90
4052;DHT22;2040;50.924;11.604;2023-05-16T14:11:41;14.50;99.90
4052;DHT22;2040;50.924;11.604;2023-05-16T14:14:07;14.20;99.90
4052;DHT22;2040;50.924;11.604;2023-05-16T14:16:33;13.90;99.90
4052;DHT22;2040;50.924;11.604;2023-05-16T14:18:58;13.90;99.90
4052;DHT22;2040;50.924;11.604;2023-05-16T14:21:24;13.80;99.90
4052;DHT22;2040;50.924;11.604;2023-05-16T14:23:49;13.70;99.90
4052;DHT22;2040;50.924;11.604;2023-05-16T14:26:15;13.60;99.90
4052;DHT22;2040;50.924;11.604;2023-05-16T14:28:40;13.40;99.90
4052;DHT22;2040;50.924;11.604;2023-05-16T14:31:06;13.40;99.90
4052;DHT22;2040;50.924;11.604;2023-05-16T14:33:32;13.40;99.90
4052;DHT22;2040;50.924;11.604;2023-05-16T14:35:57;13.40;99.90
4052;DHT22;2040;50.924;11.604;2023-05-16T14:38:23;13.30;99.90
4052;DHT22;2040;50.924;11.604;2023-05-16T14:40:49;13.30;99.90
4052;DHT22;2040;50.924;11.604;2023-05-16T14:43:14;13.30;99.90
4052;DHT22;2040;50.924;11.604;2023-05-16T14:45:41;13.30;99.90
4052;DHT22;2040;50.924;11.604;2023-05-16T14:48:07;13.30;99.90
4052;DHT22;2040;50.924;11.604;2023-05-16T14:50:33;13.30;99.90
4052;DHT22;2040;50.924;11.604;2023-05-16T14:52:59;13.30;99.90
4052;DHT22;2040;50.924;11.604;2023-05-16T14:55:25;13.30;99.90
4052;DHT22;2040;50.924;11.604;2023-05-16T14:57:51;13.30;99.90
4052;DHT22;2040;50.924;11.604;2023-05-16T15:00:22;13.20;99.90
4052;DHT22;2040;50.924;11.604;2023-05-16T15:02:48;13.30;99.90
4052;DHT22;2040;50.924;11.604;2023-05-16T15:05:14;13.30;99.90
4052;DHT22;2040;50.924;11.604;2023-05-16T15:07:39;13.30;99.90
4052;DHT22;2040;50.924;11.604;2023-05-16T15:10:05;13.30;99.90
4052;DHT22;2040;50.924;11.604;2023-05-16T15:12:31;13.40;99.90
4052;DHT22;2040;50.924;11.604;2023-05-16T15:14:56;13.40;99.90
4052;DHT22;2040;50.924;11.604;2023-05-16T15:17:22;13.90;99.90
4052;DHT22;2040;50.924;11.604;2023-05-16T15:19:48;14.10;99.90
4052;DHT22;2040;50.924;11.604;2023-05-16T15:22:13;14.20;99.90
4052;DHT22;2040;50.924;11.604;2023-05-16T15:24:39;14.20;99.90
4052;DHT22;2040;50.924;11.604;2023-05-16T15:27:05;14.10;99.90
4052;DHT22;2040;50.924;11.604;2023-05-16T15:29:30;13.90;99.90
4052;DHT22;2040;50.924;11.604;2023-05-16T15:31:56;13.90;99.90
4052;DHT22;2040;50.924;11.604;2023-05-16T15:34:22;13.90;99.90
4052;DHT22;2040;50.924;11.604;2023-05-16T15:36:48;13.80;99.90
4052;DHT22;2040;50.924;11.604;2023-05-16T15:39:13;14.00;99.90
4052;DHT22;2040;50.924;11.604;2023-05-16T15:41:39;14.50;99.90
4052;DHT22;2040;50.924;11.604;2023-05-16T15:44:04;14.90;99.90
4052;DHT22;2040;50.924;11.604;2023-05-16T15:46:30;14.90;99.90
4052;DHT22;2040;50.924;11.604;2023-05-16T15:48:57;14.70;99.90
4052;DHT22;2040;50.924;11.604;2023-05-16T15:51:23;14.60;99.90
4052;DHT22;2040;50.924;11.604;2023-05-16T15:53:48;14.40;99.90
4052;DHT22;2040;50.924;11.604;2023-05-16T15:56:14;14.30;99.90
4052;DHT22;2040;50.924;11.604;2023-05-16T15:58:40;14.10;99.90
4052;DHT22;2040;50.924;11.604;2023-05-16T16:01:06;14.00;99.90
4052;DHT22;2040;50.924;11.604;2023-05-16T16:03:31;14.00;99.90
4052;DHT22;2040;50.924;11.604;2023-05-16T16:05:57;14.20;99.90
4052;DHT22;2040;50.924;11.604;2023-05-16T16:08:22;14.10;99.90
4052;DHT22;2040;50.924;11.604;2023-05-16T16:10:48;14.10;99.90
4052;DHT22;2040;50.924;11.604;2023-05-16T16:13:13;14.10;99.90
4052;DHT22;2040;50.924;11.604;2023-05-16T16:15:39;14.10;99.90